KOZR/OZR METAR and TAF weather

Enter ICAO airport designator
Station Type Date Time Source
KOZR METAR 2022/01/25 04:56 UTC NOAA

KOZR 250456Z AUTO 00000KT 10SM SCT090 08/03 A2998 RMK AO2 SLP155 T00770030 $


Station Type Date Time Source
KOZR Decoded METAR 2022/01/25 04:56 UTC NOAA

Cairns Army Air Field / Ozark, AL, United States (KOZR) 31-17N 085-43W
Jan 24, 2022 - 11:56 PM EST / 2022.01.25 0456 UTC
Wind: Calm:0
Visibility: 10 mile(s):0
Sky conditions: partly cloudy
Temperature: 45.9 F (7.7 C)
Dew Point: 37.4 F (3.0 C)
Relative Humidity: 72%
Pressure (altimeter): 29.98 in. Hg (1015 hPa)
ob: KOZR 250456Z AUTO 00000KT 10SM SCT090 08/03 A2998 RMK AO2 SLP155 T00770030
cycle: 5

Station Type Date Time Source
KOZR TAF 2022/01/25 02:36 UTC NOAA

TAF TAF KOZR 250200Z 2502/2608 21006KT 9999 SCT080 BKN140 QNH2998INS
BECMG 2505/2506 22005KT 9999 VCSH BKN030 BKN080 OVC120 620909 621809 QNH2996INS
BECMG 2508/2509 02005KT 4800 -SHRA FEW010 BKN015 OVC030 620809 621705 651006 QNH2996INS
TEMPO 2512/2518 3600 RA BKN007 OVC015
BECMG 2522/2523 02005KT 9999 NSW FEW010 BKN030 620903 QNH3005INS TX11/2519Z TN06/2512Z

Example: see airport list